sensor_id;sensor_type;location;lat;lon;timestamp;P1;durP1;ratioP1;P2;durP2;ratioP2
75746;SDS011;70632;52.232;21.038;2023-08-31T00:00:10;15.82;;;8.23;;
75746;SDS011;70632;52.232;21.038;2023-08-31T00:02:56;15.88;;;6.97;;
75746;SDS011;70632;52.232;21.038;2023-08-31T00:05:23;13.43;;;7.60;;
75746;SDS011;70632;52.232;21.038;2023-08-31T00:07:50;15.15;;;7.95;;
75746;SDS011;70632;52.232;21.038;2023-08-31T00:10:16;14.63;;;8.02;;
75746;SDS011;70632;52.232;21.038;2023-08-31T00:12:42;14.88;;;8.63;;
75746;SDS011;70632;52.232;21.038;2023-08-31T00:15:09;18.67;;;9.25;;
75746;SDS011;70632;52.232;21.038;2023-08-31T00:17:35;12.60;;;7.05;;
75746;SDS011;70632;52.232;21.038;2023-08-31T00:20:01;15.93;;;7.30;;
75746;SDS011;70632;52.232;21.038;2023-08-31T00:22:31;14.82;;;8.02;;
75746;SDS011;70632;52.232;21.038;2023-08-31T00:24:56;13.52;;;7.40;;
75746;SDS011;70632;52.232;21.038;2023-08-31T00:27:22;12.52;;;7.20;;
75746;SDS011;70632;52.232;21.038;2023-08-31T00:29:48;14.98;;;6.65;;
75746;SDS011;70632;52.232;21.038;2023-08-31T00:32:15;12.13;;;6.90;;
75746;SDS011;70632;52.232;21.038;2023-08-31T00:34:41;15.63;;;6.57;;
75746;SDS011;70632;52.232;21.038;2023-08-31T00:37:06;11.38;;;7.13;;
75746;SDS011;70632;52.232;21.038;2023-08-31T00:39:32;11.55;;;5.82;;
75746;SDS011;70632;52.232;21.038;2023-08-31T00:41:59;12.55;;;7.07;;
75746;SDS011;70632;52.232;21.038;2023-08-31T00:44:25;12.05;;;6.57;;
75746;SDS011;70632;52.232;21.038;2023-08-31T00:46:50;11.45;;;6.53;;
75746;SDS011;70632;52.232;21.038;2023-08-31T00:49:17;22.58;;;7.00;;
75746;SDS011;70632;52.232;21.038;2023-08-31T00:51:43;16.45;;;7.93;;
75746;SDS011;70632;52.232;21.038;2023-08-31T00:54:19;10.65;;;6.85;;
75746;SDS011;70632;52.232;21.038;2023-08-31T00:56:52;12.57;;;6.57;;
75746;SDS011;70632;52.232;21.038;2023-08-31T00:59:20;9.10;;;5.85;;
75746;SDS011;70632;52.232;21.038;2023-08-31T01:01:49;15.13;;;6.30;;
75746;SDS011;70632;52.232;21.038;2023-08-31T01:04:25;11.30;;;7.28;;
75746;SDS011;70632;52.232;21.038;2023-08-31T01:07:21;9.95;;;6.30;;
75746;SDS011;70632;52.232;21.038;2023-08-31T01:09:57;10.40;;;6.63;;
75746;SDS011;70632;52.232;21.038;2023-08-31T01:12:52;10.68;;;5.75;;
75746;SDS011;70632;52.232;21.038;2023-08-31T01:15:24;16.17;;;6.32;;
75746;SDS011;70632;52.232;21.038;2023-08-31T01:17:52;8.95;;;5.85;;
75746;SDS011;70632;52.232;21.038;2023-08-31T01:20:28;12.38;;;6.00;;
75746;SDS011;70632;52.232;21.038;2023-08-31T01:23:02;11.23;;;6.00;;
75746;SDS011;70632;52.232;21.038;2023-08-31T01:25:32;9.50;;;5.72;;
75746;SDS011;70632;52.232;21.038;2023-08-31T01:27:58;9.60;;;6.05;;
75746;SDS011;70632;52.232;21.038;2023-08-31T01:30:25;10.32;;;5.25;;
75746;SDS011;70632;52.232;21.038;2023-08-31T01:32:55;7.82;;;4.80;;
75746;SDS011;70632;52.232;21.038;2023-08-31T01:35:21;12.15;;;6.10;;
75746;SDS011;70632;52.232;21.038;2023-08-31T01:37:50;11.20;;;5.30;;
75746;SDS011;70632;52.232;21.038;2023-08-31T01:43:09;9.35;;;5.45;;
75746;SDS011;70632;52.232;21.038;2023-08-31T01:45:36;9.43;;;5.43;;
75746;SDS011;70632;52.232;21.038;2023-08-31T01:48:03;10.30;;;6.07;;
75746;SDS011;70632;52.232;21.038;2023-08-31T01:50:30;9.45;;;5.30;;
75746;SDS011;70632;52.232;21.038;2023-08-31T01:52:55;10.57;;;5.57;;
75746;SDS011;70632;52.232;21.038;2023-08-31T01:55:22;9.65;;;5.80;;
75746;SDS011;70632;52.232;21.038;2023-08-31T01:57:47;8.43;;;5.65;;
75746;SDS011;70632;52.232;21.038;2023-08-31T02:00:14;9.10;;;5.57;;
75746;SDS011;70632;52.232;21.038;2023-08-31T02:02:41;11.85;;;5.93;;
75746;SDS011;70632;52.232;21.038;2023-08-31T02:05:08;9.48;;;5.88;;
75746;SDS011;70632;52.232;21.038;2023-08-31T02:07:34;9.50;;;5.32;;
75746;SDS011;70632;52.232;21.038;2023-08-31T02:10:00;9.50;;;5.70;;
75746;SDS011;70632;52.232;21.038;2023-08-31T02:12:25;10.32;;;5.43;;
75746;SDS011;70632;52.232;21.038;2023-08-31T02:14:51;10.20;;;5.50;;
75746;SDS011;70632;52.232;21.038;2023-08-31T02:17:17;11.18;;;5.45;;
75746;SDS011;70632;52.232;21.038;2023-08-31T02:19:43;10.55;;;6.22;;
75746;SDS011;70632;52.232;21.038;2023-08-31T02:22:08;9.02;;;5.35;;
75746;SDS011;70632;52.232;21.038;2023-08-31T02:24:34;9.55;;;6.68;;
75746;SDS011;70632;52.232;21.038;2023-08-31T02:27:00;12.43;;;6.75;;
75746;SDS011;70632;52.232;21.038;2023-08-31T02:29:26;9.30;;;6.05;;
75746;SDS011;70632;52.232;21.038;2023-08-31T02:31:51;11.50;;;6.60;;
75746;SDS011;70632;52.232;21.038;2023-08-31T02:34:17;9.02;;;6.05;;
75746;SDS011;70632;52.232;21.038;2023-08-31T02:36:43;10.10;;;6.15;;
75746;SDS011;70632;52.232;21.038;2023-08-31T02:39:08;8.70;;;6.28;;
75746;SDS011;70632;52.232;21.038;2023-08-31T02:41:34;13.63;;;5.38;;
75746;SDS011;70632;52.232;21.038;2023-08-31T02:44:00;10.57;;;5.63;;
75746;SDS011;70632;52.232;21.038;2023-08-31T02:46:25;9.13;;;5.57;;
75746;SDS011;70632;52.232;21.038;2023-08-31T02:48:51;11.45;;;6.85;;
75746;SDS011;70632;52.232;21.038;2023-08-31T02:51:17;11.25;;;6.55;;
75746;SDS011;70632;52.232;21.038;2023-08-31T02:53:43;12.00;;;6.88;;
75746;SDS011;70632;52.232;21.038;2023-08-31T02:56:08;10.52;;;6.35;;
75746;SDS011;70632;52.232;21.038;2023-08-31T02:58:34;9.40;;;5.88;;
75746;SDS011;70632;52.232;21.038;2023-08-31T03:01:06;11.98;;;6.18;;
75746;SDS011;70632;52.232;21.038;2023-08-31T03:03:37;8.93;;;5.50;;
75746;SDS011;70632;52.232;21.038;2023-08-31T03:06:03;12.70;;;6.00;;
75746;SDS011;70632;52.232;21.038;2023-08-31T03:08:30;10.70;;;5.55;;
75746;SDS011;70632;52.232;21.038;2023-08-31T03:10:56;11.65;;;6.45;;
75746;SDS011;70632;52.232;21.038;2023-08-31T03:13:22;9.70;;;5.63;;
75746;SDS011;70632;52.232;21.038;2023-08-31T03:15:48;10.43;;;5.88;;
75746;SDS011;70632;52.232;21.038;2023-08-31T03:18:14;11.60;;;6.00;;
75746;SDS011;70632;52.232;21.038;2023-08-31T03:20:39;11.27;;;5.10;;
75746;SDS011;70632;52.232;21.038;2023-08-31T03:23:05;8.00;;;4.72;;
75746;SDS011;70632;52.232;21.038;2023-08-31T03:25:31;6.22;;;3.88;;
75746;SDS011;70632;52.232;21.038;2023-08-31T03:27:57;7.93;;;4.60;;
75746;SDS011;70632;52.232;21.038;2023-08-31T03:30:22;10.60;;;4.93;;
75746;SDS011;70632;52.232;21.038;2023-08-31T03:32:48;8.90;;;5.07;;
75746;SDS011;70632;52.232;21.038;2023-08-31T03:35:14;7.70;;;5.35;;
75746;SDS011;70632;52.232;21.038;2023-08-31T03:37:40;9.95;;;4.72;;
75746;SDS011;70632;52.232;21.038;2023-08-31T03:40:05;8.30;;;4.90;;
75746;SDS011;70632;52.232;21.038;2023-08-31T03:42:33;8.10;;;4.80;;
75746;SDS011;70632;52.232;21.038;2023-08-31T03:45:00;8.50;;;4.63;;
75746;SDS011;70632;52.232;21.038;2023-08-31T03:47:25;8.07;;;4.78;;
75746;SDS011;70632;52.232;21.038;2023-08-31T03:49:51;8.45;;;4.68;;
75746;SDS011;70632;52.232;21.038;2023-08-31T03:52:17;8.15;;;4.80;;
75746;SDS011;70632;52.232;21.038;2023-08-31T03:54:42;8.13;;;4.85;;
75746;SDS011;70632;52.232;21.038;2023-08-31T03:57:08;6.47;;;4.25;;
75746;SDS011;70632;52.232;21.038;2023-08-31T03:59:34;9.30;;;4.38;;
75746;SDS011;70632;52.232;21.038;2023-08-31T04:02:00;6.07;;;4.28;;
75746;SDS011;70632;52.232;21.038;2023-08-31T04:04:25;7.90;;;4.55;;
75746;SDS011;70632;52.232;21.038;2023-08-31T04:06:51;7.82;;;5.25;;
75746;SDS011;70632;52.232;21.038;2023-08-31T04:09:17;9.80;;;4.80;;
75746;SDS011;70632;52.232;21.038;2023-08-31T04:11:42;9.95;;;4.93;;
75746;SDS011;70632;52.232;21.038;2023-08-31T04:14:08;8.20;;;4.70;;
75746;SDS011;70632;52.232;21.038;2023-08-31T04:16:34;8.95;;;5.00;;
75746;SDS011;70632;52.232;21.038;2023-08-31T04:19:00;8.13;;;4.50;;
75746;SDS011;70632;52.232;21.038;2023-08-31T04:21:26;6.22;;;4.05;;
75746;SDS011;70632;52.232;21.038;2023-08-31T04:23:51;8.13;;;5.20;;
75746;SDS011;70632;52.232;21.038;2023-08-31T04:26:17;7.55;;;4.40;;
75746;SDS011;70632;52.232;21.038;2023-08-31T04:28:42;6.68;;;4.15;;
75746;SDS011;70632;52.232;21.038;2023-08-31T04:31:09;8.15;;;4.50;;
75746;SDS011;70632;52.232;21.038;2023-08-31T04:33:35;9.45;;;3.92;;
75746;SDS011;70632;52.232;21.038;2023-08-31T04:36:03;7.55;;;3.50;;
75746;SDS011;70632;52.232;21.038;2023-08-31T04:38:30;6.25;;;3.67;;
75746;SDS011;70632;52.232;21.038;2023-08-31T04:41:00;5.45;;;3.83;;
75746;SDS011;70632;52.232;21.038;2023-08-31T04:43:26;6.78;;;4.00;;
75746;SDS011;70632;52.232;21.038;2023-08-31T04:45:53;8.80;;;3.60;;
75746;SDS011;70632;52.232;21.038;2023-08-31T04:48:19;5.95;;;3.97;;
75746;SDS011;70632;52.232;21.038;2023-08-31T04:50:45;6.65;;;3.70;;
75746;SDS011;70632;52.232;21.038;2023-08-31T04:53:10;5.40;;;3.20;;
75746;SDS011;70632;52.232;21.038;2023-08-31T04:55:36;6.20;;;3.50;;
75746;SDS011;70632;52.232;21.038;2023-08-31T04:58:03;6.57;;;3.67;;
75746;SDS011;70632;52.232;21.038;2023-08-31T05:00:29;6.80;;;3.85;;
75746;SDS011;70632;52.232;21.038;2023-08-31T05:02:55;5.93;;;3.45;;
75746;SDS011;70632;52.232;21.038;2023-08-31T05:05:21;7.07;;;4.30;;
75746;SDS011;70632;52.232;21.038;2023-08-31T05:07:47;7.30;;;4.40;;
75746;SDS011;70632;52.232;21.038;2023-08-31T05:10:13;6.63;;;3.85;;
75746;SDS011;70632;52.232;21.038;2023-08-31T05:12:38;6.20;;;3.72;;
75746;SDS011;70632;52.232;21.038;2023-08-31T05:15:04;6.35;;;3.92;;
75746;SDS011;70632;52.232;21.038;2023-08-31T05:17:31;7.10;;;3.67;;
75746;SDS011;70632;52.232;21.038;2023-08-31T05:19:57;5.20;;;3.63;;
75746;SDS011;70632;52.232;21.038;2023-08-31T05:22:22;6.00;;;3.15;;
75746;SDS011;70632;52.232;21.038;2023-08-31T05:24:48;6.93;;;3.95;;
75746;SDS011;70632;52.232;21.038;2023-08-31T05:27:14;13.45;;;4.55;;
75746;SDS011;70632;52.232;21.038;2023-08-31T05:29:40;5.43;;;2.95;;
75746;SDS011;70632;52.232;21.038;2023-08-31T05:32:06;4.85;;;2.60;;
75746;SDS011;70632;52.232;21.038;2023-08-31T05:34:32;6.82;;;3.53;;
75746;SDS011;70632;52.232;21.038;2023-08-31T05:36:58;4.53;;;2.15;;
75746;SDS011;70632;52.232;21.038;2023-08-31T05:39:24;5.43;;;2.70;;
75746;SDS011;70632;52.232;21.038;2023-08-31T05:41:50;7.85;;;2.90;;
75746;SDS011;70632;52.232;21.038;2023-08-31T05:44:16;5.63;;;2.17;;
75746;SDS011;70632;52.232;21.038;2023-08-31T05:46:42;5.47;;;2.65;;
75746;SDS011;70632;52.232;21.038;2023-08-31T05:49:08;4.28;;;2.30;;
75746;SDS011;70632;52.232;21.038;2023-08-31T05:51:34;4.47;;;1.85;;
75746;SDS011;70632;52.232;21.038;2023-08-31T05:54:00;4.15;;;2.30;;
75746;SDS011;70632;52.232;21.038;2023-08-31T05:56:26;4.72;;;2.10;;
75746;SDS011;70632;52.232;21.038;2023-08-31T05:58:52;3.60;;;2.38;;
75746;SDS011;70632;52.232;21.038;2023-08-31T06:01:20;3.67;;;2.28;;
75746;SDS011;70632;52.232;21.038;2023-08-31T06:03:45;4.13;;;1.88;;
75746;SDS011;70632;52.232;21.038;2023-08-31T06:06:11;4.25;;;2.17;;
75746;SDS011;70632;52.232;21.038;2023-08-31T06:08:37;5.25;;;2.22;;
75746;SDS011;70632;52.232;21.038;2023-08-31T06:11:02;3.53;;;1.65;;
75746;SDS011;70632;52.232;21.038;2023-08-31T06:13:28;4.80;;;1.95;;
75746;SDS011;70632;52.232;21.038;2023-08-31T06:15:54;2.53;;;1.52;;
75746;SDS011;70632;52.232;21.038;2023-08-31T06:18:21;5.40;;;1.88;;
75746;SDS011;70632;52.232;21.038;2023-08-31T06:20:48;4.28;;;2.00;;
75746;SDS011;70632;52.232;21.038;2023-08-31T06:25:40;4.13;;;2.67;;
75746;SDS011;70632;52.232;21.038;2023-08-31T06:28:06;5.03;;;2.38;;
75746;SDS011;70632;52.232;21.038;2023-08-31T06:30:34;7.20;;;2.58;;
75746;SDS011;70632;52.232;21.038;2023-08-31T06:33:00;4.38;;;2.25;;
75746;SDS011;70632;52.232;21.038;2023-08-31T06:35:26;11.52;;;2.80;;
75746;SDS011;70632;52.232;21.038;2023-08-31T06:37:52;5.28;;;3.05;;
75746;SDS011;70632;52.232;21.038;2023-08-31T06:40:18;6.57;;;2.40;;
75746;SDS011;70632;52.232;21.038;2023-08-31T06:42:43;4.40;;;2.90;;
75746;SDS011;70632;52.232;21.038;2023-08-31T06:45:09;4.45;;;1.98;;
75746;SDS011;70632;52.232;21.038;2023-08-31T06:47:35;3.95;;;2.40;;
75746;SDS011;70632;52.232;21.038;2023-08-31T06:50:01;5.20;;;2.60;;
75746;SDS011;70632;52.232;21.038;2023-08-31T06:52:28;4.38;;;2.45;;
75746;SDS011;70632;52.232;21.038;2023-08-31T06:54:54;4.28;;;2.20;;
75746;SDS011;70632;52.232;21.038;2023-08-31T06:57:22;3.22;;;1.90;;
75746;SDS011;70632;52.232;21.038;2023-08-31T06:59:48;5.35;;;2.22;;
75746;SDS011;70632;52.232;21.038;2023-08-31T07:02:14;4.65;;;1.92;;
75746;SDS011;70632;52.232;21.038;2023-08-31T07:04:40;5.13;;;2.13;;
75746;SDS011;70632;52.232;21.038;2023-08-31T07:07:06;5.75;;;2.03;;
75746;SDS011;70632;52.232;21.038;2023-08-31T07:09:34;5.80;;;2.38;;
75746;SDS011;70632;52.232;21.038;2023-08-31T07:12:00;3.63;;;2.15;;
75746;SDS011;70632;52.232;21.038;2023-08-31T07:14:29;3.90;;;2.25;;
75746;SDS011;70632;52.232;21.038;2023-08-31T07:16:55;4.10;;;2.08;;
75746;SDS011;70632;52.232;21.038;2023-08-31T07:19:20;6.40;;;2.28;;
75746;SDS011;70632;52.232;21.038;2023-08-31T07:21:46;5.45;;;2.75;;
75746;SDS011;70632;52.232;21.038;2023-08-31T07:24:13;4.53;;;2.45;;
75746;SDS011;70632;52.232;21.038;2023-08-31T07:26:39;5.70;;;2.42;;
75746;SDS011;70632;52.232;21.038;2023-08-31T07:29:04;4.82;;;2.33;;
75746;SDS011;70632;52.232;21.038;2023-08-31T07:31:30;4.68;;;2.50;;
75746;SDS011;70632;52.232;21.038;2023-08-31T07:33:57;9.82;;;2.75;;
75746;SDS011;70632;52.232;21.038;2023-08-31T07:36:23;4.63;;;2.60;;
75746;SDS011;70632;52.232;21.038;2023-08-31T07:38:50;4.00;;;2.65;;
75746;SDS011;70632;52.232;21.038;2023-08-31T07:41:16;6.55;;;2.83;;
75746;SDS011;70632;52.232;21.038;2023-08-31T07:43:41;5.00;;;2.85;;
75746;SDS011;70632;52.232;21.038;2023-08-31T07:46:07;4.63;;;2.45;;
75746;SDS011;70632;52.232;21.038;2023-08-31T07:48:33;6.13;;;3.17;;
75746;SDS011;70632;52.232;21.038;2023-08-31T07:50:58;5.70;;;2.47;;
75746;SDS011;70632;52.232;21.038;2023-08-31T07:53:24;3.95;;;2.30;;
75746;SDS011;70632;52.232;21.038;2023-08-31T07:55:53;5.28;;;2.40;;
75746;SDS011;70632;52.232;21.038;2023-08-31T07:58:20;4.75;;;2.60;;
75746;SDS011;70632;52.232;21.038;2023-08-31T08:00:46;4.15;;;2.35;;
75746;SDS011;70632;52.232;21.038;2023-08-31T08:03:12;4.25;;;2.65;;
75746;SDS011;70632;52.232;21.038;2023-08-31T08:05:41;6.45;;;2.55;;
75746;SDS011;70632;52.232;21.038;2023-08-31T08:08:07;4.18;;;2.10;;
75746;SDS011;70632;52.232;21.038;2023-08-31T08:10:33;2.92;;;2.10;;
75746;SDS011;70632;52.232;21.038;2023-08-31T08:12:58;4.47;;;2.42;;
75746;SDS011;70632;52.232;21.038;2023-08-31T08:15:24;5.88;;;2.33;;
75746;SDS011;70632;52.232;21.038;2023-08-31T08:17:50;4.95;;;1.92;;
75746;SDS011;70632;52.232;21.038;2023-08-31T08:20:16;2.70;;;1.45;;
75746;SDS011;70632;52.232;21.038;2023-08-31T08:22:42;2.78;;;1.40;;
75746;SDS011;70632;52.232;21.038;2023-08-31T08:25:08;3.03;;;1.38;;
75746;SDS011;70632;52.232;21.038;2023-08-31T08:27:33;3.92;;;1.90;;
75746;SDS011;70632;52.232;21.038;2023-08-31T08:30:00;3.67;;;1.98;;
75746;SDS011;70632;52.232;21.038;2023-08-31T08:32:25;2.85;;;1.60;;
75746;SDS011;70632;52.232;21.038;2023-08-31T08:34:51;2.85;;;1.55;;
75746;SDS011;70632;52.232;21.038;2023-08-31T08:37:17;4.97;;;1.98;;
75746;SDS011;70632;52.232;21.038;2023-08-31T08:39:43;4.40;;;2.10;;
75746;SDS011;70632;52.232;21.038;2023-08-31T08:42:09;3.72;;;1.90;;
75746;SDS011;70632;52.232;21.038;2023-08-31T08:44:36;3.67;;;1.83;;
75746;SDS011;70632;52.232;21.038;2023-08-31T08:47:02;5.13;;;1.75;;
75746;SDS011;70632;52.232;21.038;2023-08-31T08:49:32;4.05;;;1.50;;
75746;SDS011;70632;52.232;21.038;2023-08-31T08:52:00;4.05;;;1.88;;
75746;SDS011;70632;52.232;21.038;2023-08-31T08:54:26;4.28;;;2.10;;
75746;SDS011;70632;52.232;21.038;2023-08-31T08:56:52;4.22;;;1.88;;
75746;SDS011;70632;52.232;21.038;2023-08-31T08:59:18;3.85;;;2.42;;
75746;SDS011;70632;52.232;21.038;2023-08-31T09:01:45;3.13;;;2.20;;
75746;SDS011;70632;52.232;21.038;2023-08-31T09:04:11;3.75;;;2.35;;
75746;SDS011;70632;52.232;21.038;2023-08-31T09:06:38;4.55;;;2.35;;
75746;SDS011;70632;52.232;21.038;2023-08-31T09:09:04;4.60;;;2.53;;
75746;SDS011;70632;52.232;21.038;2023-08-31T09:11:30;4.53;;;2.45;;
75746;SDS011;70632;52.232;21.038;2023-08-31T09:13:59;3.42;;;1.77;;
75746;SDS011;70632;52.232;21.038;2023-08-31T09:16:25;4.40;;;2.03;;
75746;SDS011;70632;52.232;21.038;2023-08-31T09:18:56;9.90;;;2.60;;
75746;SDS011;70632;52.232;21.038;2023-08-31T09:21:34;3.85;;;2.25;;
75746;SDS011;70632;52.232;21.038;2023-08-31T09:24:00;3.95;;;2.50;;
75746;SDS011;70632;52.232;21.038;2023-08-31T09:26:27;4.07;;;2.20;;
75746;SDS011;70632;52.232;21.038;2023-08-31T09:28:53;6.78;;;2.53;;
75746;SDS011;70632;52.232;21.038;2023-08-31T09:31:19;6.50;;;2.92;;
75746;SDS011;70632;52.232;21.038;2023-08-31T09:33:51;5.30;;;2.72;;
75746;SDS011;70632;52.232;21.038;2023-08-31T09:36:17;5.90;;;2.67;;
75746;SDS011;70632;52.232;21.038;2023-08-31T09:38:45;4.40;;;2.50;;
75746;SDS011;70632;52.232;21.038;2023-08-31T09:41:11;5.03;;;2.67;;
75746;SDS011;70632;52.232;21.038;2023-08-31T09:43:38;5.13;;;3.00;;
75746;SDS011;70632;52.232;21.038;2023-08-31T09:46:04;4.95;;;2.45;;
75746;SDS011;70632;52.232;21.038;2023-08-31T09:48:30;3.65;;;2.40;;
75746;SDS011;70632;52.232;21.038;2023-08-31T09:50:56;3.60;;;2.17;;
75746;SDS011;70632;52.232;21.038;2023-08-31T09:53:23;4.03;;;1.80;;
75746;SDS011;70632;52.232;21.038;2023-08-31T09:55:50;3.50;;;2.53;;
75746;SDS011;70632;52.232;21.038;2023-08-31T09:58:19;8.95;;;2.70;;
75746;SDS011;70632;52.232;21.038;2023-08-31T10:00:46;5.43;;;2.20;;
75746;SDS011;70632;52.232;21.038;2023-08-31T10:03:13;6.50;;;2.20;;
75746;SDS011;70632;52.232;21.038;2023-08-31T10:05:44;5.15;;;2.17;;
75746;SDS011;70632;52.232;21.038;2023-08-31T10:08:11;2.97;;;2.08;;
75746;SDS011;70632;52.232;21.038;2023-08-31T10:10:37;5.57;;;2.53;;
75746;SDS011;70632;52.232;21.038;2023-08-31T10:13:05;7.60;;;2.65;;
75746;SDS011;70632;52.232;21.038;2023-08-31T10:15:34;4.28;;;2.55;;
75746;SDS011;70632;52.232;21.038;2023-08-31T10:18:05;3.22;;;2.00;;
75746;SDS011;70632;52.232;21.038;2023-08-31T10:20:32;5.45;;;2.50;;
75746;SDS011;70632;52.232;21.038;2023-08-31T10:23:01;5.95;;;2.50;;
75746;SDS011;70632;52.232;21.038;2023-08-31T10:28:18;5.07;;;2.60;;
75746;SDS011;70632;52.232;21.038;2023-08-31T10:31:01;3.95;;;2.58;;
75746;SDS011;70632;52.232;21.038;2023-08-31T10:38:42;4.05;;;2.38;;
75746;SDS011;70632;52.232;21.038;2023-08-31T10:43:46;5.10;;;2.67;;
75746;SDS011;70632;52.232;21.038;2023-08-31T10:46:32;5.38;;;3.00;;
75746;SDS011;70632;52.232;21.038;2023-08-31T10:51:34;7.03;;;3.40;;
75746;SDS011;70632;52.232;21.038;2023-08-31T10:54:11;4.25;;;2.47;;
75746;SDS011;70632;52.232;21.038;2023-08-31T11:02:08;5.85;;;2.75;;
75746;SDS011;70632;52.232;21.038;2023-08-31T11:04:53;4.78;;;2.67;;
75746;SDS011;70632;52.232;21.038;2023-08-31T11:07:30;5.10;;;3.05;;
75746;SDS011;70632;52.232;21.038;2023-08-31T11:10:13;6.28;;;2.92;;
75746;SDS011;70632;52.232;21.038;2023-08-31T11:12:42;4.72;;;2.90;;
75746;SDS011;70632;52.232;21.038;2023-08-31T11:15:13;5.40;;;2.63;;
75746;SDS011;70632;52.232;21.038;2023-08-31T11:17:39;3.90;;;2.78;;
75746;SDS011;70632;52.232;21.038;2023-08-31T11:20:07;5.60;;;2.83;;
75746;SDS011;70632;52.232;21.038;2023-08-31T11:22:37;4.30;;;2.75;;
75746;SDS011;70632;52.232;21.038;2023-08-31T11:25:04;5.32;;;3.40;;
75746;SDS011;70632;52.232;21.038;2023-08-31T11:27:30;6.20;;;3.28;;
75746;SDS011;70632;52.232;21.038;2023-08-31T11:29:55;7.35;;;3.63;;
75746;SDS011;70632;52.232;21.038;2023-08-31T11:32:24;4.38;;;3.15;;
75746;SDS011;70632;52.232;21.038;2023-08-31T11:34:50;6.10;;;3.53;;
75746;SDS011;70632;52.232;21.038;2023-08-31T11:37:16;4.63;;;2.72;;
75746;SDS011;70632;52.232;21.038;2023-08-31T11:39:52;5.85;;;3.50;;
75746;SDS011;70632;52.232;21.038;2023-08-31T11:42:19;5.43;;;3.55;;
75746;SDS011;70632;52.232;21.038;2023-08-31T11:44:46;5.57;;;3.08;;
75746;SDS011;70632;52.232;21.038;2023-08-31T11:47:13;7.03;;;3.50;;
75746;SDS011;70632;52.232;21.038;2023-08-31T11:49:40;4.05;;;3.13;;
75746;SDS011;70632;52.232;21.038;2023-08-31T11:52:06;6.43;;;3.97;;
75746;SDS011;70632;52.232;21.038;2023-08-31T11:54:36;5.25;;;3.08;;
75746;SDS011;70632;52.232;21.038;2023-08-31T11:57:03;4.82;;;3.30;;
75746;SDS011;70632;52.232;21.038;2023-08-31T11:59:34;6.32;;;3.47;;
75746;SDS011;70632;52.232;21.038;2023-08-31T12:04:27;5.80;;;3.28;;
75746;SDS011;70632;52.232;21.038;2023-08-31T12:06:53;5.45;;;3.70;;
75746;SDS011;70632;52.232;21.038;2023-08-31T12:09:27;5.10;;;3.28;;
75746;SDS011;70632;52.232;21.038;2023-08-31T12:11:53;5.38;;;3.53;;
75746;SDS011;70632;52.232;21.038;2023-08-31T12:16:46;4.07;;;3.45;;
75746;SDS011;70632;52.232;21.038;2023-08-31T12:19:12;6.05;;;4.15;;
75746;SDS011;70632;52.232;21.038;2023-08-31T12:21:37;6.80;;;3.65;;
75746;SDS011;70632;52.232;21.038;2023-08-31T12:24:04;6.53;;;3.83;;
75746;SDS011;70632;52.232;21.038;2023-08-31T12:26:31;6.72;;;3.67;;
75746;SDS011;70632;52.232;21.038;2023-08-31T12:28:57;6.05;;;3.67;;
75746;SDS011;70632;52.232;21.038;2023-08-31T12:31:23;6.70;;;3.67;;
75746;SDS011;70632;52.232;21.038;2023-08-31T12:33:49;5.50;;;3.38;;
75746;SDS011;70632;52.232;21.038;2023-08-31T12:36:15;5.97;;;3.58;;
75746;SDS011;70632;52.232;21.038;2023-08-31T12:38:41;5.30;;;3.42;;
75746;SDS011;70632;52.232;21.038;2023-08-31T12:41:06;7.60;;;3.92;;
75746;SDS011;70632;52.232;21.038;2023-08-31T12:43:33;7.60;;;3.90;;
75746;SDS011;70632;52.232;21.038;2023-08-31T12:45:59;4.90;;;3.42;;
75746;SDS011;70632;52.232;21.038;2023-08-31T12:48:25;7.10;;;3.28;;
75746;SDS011;70632;52.232;21.038;2023-08-31T12:50:51;5.75;;;3.38;;
75746;SDS011;70632;52.232;21.038;2023-08-31T12:53:20;5.65;;;3.80;;
75746;SDS011;70632;52.232;21.038;2023-08-31T12:55:47;5.72;;;4.00;;
75746;SDS011;70632;52.232;21.038;2023-08-31T12:58:13;4.70;;;3.40;;
75746;SDS011;70632;52.232;21.038;2023-08-31T13:00:39;4.97;;;2.95;;
75746;SDS011;70632;52.232;21.038;2023-08-31T13:03:05;5.53;;;3.47;;
75746;SDS011;70632;52.232;21.038;2023-08-31T13:05:32;6.82;;;3.80;;
75746;SDS011;70632;52.232;21.038;2023-08-31T13:07:58;6.80;;;3.67;;
75746;SDS011;70632;52.232;21.038;2023-08-31T13:10:24;5.50;;;3.90;;
75746;SDS011;70632;52.232;21.038;2023-08-31T13:12:50;7.07;;;3.80;;
75746;SDS011;70632;52.232;21.038;2023-08-31T13:15:15;6.82;;;3.60;;
75746;SDS011;70632;52.232;21.038;2023-08-31T13:17:41;7.47;;;3.92;;
75746;SDS011;70632;52.232;21.038;2023-08-31T13:20:07;7.82;;;3.50;;
75746;SDS011;70632;52.232;21.038;2023-08-31T13:22:36;5.95;;;3.20;;
75746;SDS011;70632;52.232;21.038;2023-08-31T13:25:02;4.82;;;3.35;;
75746;SDS011;70632;52.232;21.038;2023-08-31T13:27:30;6.40;;;3.63;;
75746;SDS011;70632;52.232;21.038;2023-08-31T13:29:58;7.75;;;3.60;;
75746;SDS011;70632;52.232;21.038;2023-08-31T13:32:24;5.00;;;3.40;;
75746;SDS011;70632;52.232;21.038;2023-08-31T13:34:51;5.05;;;3.53;;
75746;SDS011;70632;52.232;21.038;2023-08-31T13:37:18;6.90;;;4.13;;
75746;SDS011;70632;52.232;21.038;2023-08-31T13:39:44;4.65;;;2.95;;
75746;SDS011;70632;52.232;21.038;2023-08-31T13:42:10;5.43;;;3.35;;
75746;SDS011;70632;52.232;21.038;2023-08-31T13:44:36;7.82;;;3.70;;
75746;SDS011;70632;52.232;21.038;2023-08-31T13:47:02;4.65;;;3.42;;
75746;SDS011;70632;52.232;21.038;2023-08-31T13:49:29;6.55;;;3.70;;
75746;SDS011;70632;52.232;21.038;2023-08-31T13:51:56;6.53;;;3.42;;
75746;SDS011;70632;52.232;21.038;2023-08-31T13:54:21;5.07;;;3.33;;
75746;SDS011;70632;52.232;21.038;2023-08-31T13:56:47;5.75;;;3.53;;
75746;SDS011;70632;52.232;21.038;2023-08-31T13:59:15;5.90;;;4.10;;
75746;SDS011;70632;52.232;21.038;2023-08-31T14:01:41;6.07;;;3.60;;
75746;SDS011;70632;52.232;21.038;2023-08-31T14:04:07;4.88;;;3.33;;
75746;SDS011;70632;52.232;21.038;2023-08-31T14:06:33;12.35;;;4.25;;
75746;SDS011;70632;52.232;21.038;2023-08-31T14:08:58;8.40;;;4.50;;
75746;SDS011;70632;52.232;21.038;2023-08-31T14:11:24;9.65;;;4.53;;
75746;SDS011;70632;52.232;21.038;2023-08-31T14:13:50;9.95;;;4.28;;
75746;SDS011;70632;52.232;21.038;2023-08-31T14:16:18;9.50;;;5.00;;
75746;SDS011;70632;52.232;21.038;2023-08-31T14:18:43;8.63;;;4.47;;
75746;SDS011;70632;52.232;21.038;2023-08-31T14:21:14;10.00;;;5.22;;
75746;SDS011;70632;52.232;21.038;2023-08-31T14:23:41;9.27;;;4.43;;
75746;SDS011;70632;52.232;21.038;2023-08-31T14:26:07;6.50;;;4.03;;
75746;SDS011;70632;52.232;21.038;2023-08-31T14:28:34;7.03;;;3.70;;
75746;SDS011;70632;52.232;21.038;2023-08-31T14:31:04;5.68;;;3.40;;
75746;SDS011;70632;52.232;21.038;2023-08-31T14:33:31;5.82;;;3.90;;
75746;SDS011;70632;52.232;21.038;2023-08-31T14:35:57;6.70;;;3.28;;
75746;SDS011;70632;52.232;21.038;2023-08-31T14:38:23;6.65;;;3.50;;
75746;SDS011;70632;52.232;21.038;2023-08-31T14:40:49;10.90;;;4.00;;
75746;SDS011;70632;52.232;21.038;2023-08-31T14:43:16;8.15;;;3.97;;
75746;SDS011;70632;52.232;21.038;2023-08-31T14:45:42;6.93;;;3.05;;
75746;SDS011;70632;52.232;21.038;2023-08-31T14:48:08;8.38;;;3.92;;
75746;SDS011;70632;52.232;21.038;2023-08-31T14:50:34;6.57;;;3.85;;
75746;SDS011;70632;52.232;21.038;2023-08-31T14:53:00;7.95;;;5.07;;
75746;SDS011;70632;52.232;21.038;2023-08-31T14:55:26;7.03;;;4.43;;
75746;SDS011;70632;52.232;21.038;2023-08-31T14:57:52;8.32;;;5.70;;
75746;SDS011;70632;52.232;21.038;2023-08-31T15:00:18;8.90;;;5.30;;